sensor_id;sensor_type;location;lat;lon;timestamp;temperature;humidity
3644;DHT22;1838;50.742;7.158;2023-08-07T00:00:53;14.40;99.90
3644;DHT22;1838;50.742;7.158;2023-08-07T00:03:19;14.50;99.90
3644;DHT22;1838;50.742;7.158;2023-08-07T00:05:46;14.40;99.90
3644;DHT22;1838;50.742;7.158;2023-08-07T00:08:12;14.40;99.90
3644;DHT22;1838;50.742;7.158;2023-08-07T00:10:37;14.40;99.90
3644;DHT22;1838;50.742;7.158;2023-08-07T00:13:03;14.40;99.90
3644;DHT22;1838;50.742;7.158;2023-08-07T00:15:29;14.40;99.90
3644;DHT22;1838;50.742;7.158;2023-08-07T00:17:54;14.40;99.90
3644;DHT22;1838;50.742;7.158;2023-08-07T00:20:20;14.40;99.90
3644;DHT22;1838;50.742;7.158;2023-08-07T00:22:45;14.40;99.90
3644;DHT22;1838;50.742;7.158;2023-08-07T00:25:11;14.40;99.90
3644;DHT22;1838;50.742;7.158;2023-08-07T00:27:36;14.40;99.90
3644;DHT22;1838;50.742;7.158;2023-08-07T00:30:02;14.40;99.90
3644;DHT22;1838;50.742;7.158;2023-08-07T00:32:28;14.40;99.90
3644;DHT22;1838;50.742;7.158;2023-08-07T00:34:53;14.40;99.90
3644;DHT22;1838;50.742;7.158;2023-08-07T00:37:19;14.40;99.90
3644;DHT22;1838;50.742;7.158;2023-08-07T00:39:44;14.40;99.90
3644;DHT22;1838;50.742;7.158;2023-08-07T00:42:10;14.40;99.90
3644;DHT22;1838;50.742;7.158;2023-08-07T00:44:35;14.30;99.90
3644;DHT22;1838;50.742;7.158;2023-08-07T00:47:01;14.40;99.90
3644;DHT22;1838;50.742;7.158;2023-08-07T00:49:27;14.40;99.90
3644;DHT22;1838;50.742;7.158;2023-08-07T00:51:52;14.40;99.90
3644;DHT22;1838;50.742;7.158;2023-08-07T00:54:19;14.40;99.90
3644;DHT22;1838;50.742;7.158;2023-08-07T00:56:46;14.30;99.90
3644;DHT22;1838;50.742;7.158;2023-08-07T00:59:13;14.40;99.90
3644;DHT22;1838;50.742;7.158;2023-08-07T01:01:38;14.40;99.90
3644;DHT22;1838;50.742;7.158;2023-08-07T01:04:04;14.40;99.90
3644;DHT22;1838;50.742;7.158;2023-08-07T01:06:30;14.40;99.90
3644;DHT22;1838;50.742;7.158;2023-08-07T01:08:57;14.40;99.90
3644;DHT22;1838;50.742;7.158;2023-08-07T01:11:36;14.40;99.90
3644;DHT22;1838;50.742;7.158;2023-08-07T01:14:28;14.40;99.90
3644;DHT22;1838;50.742;7.158;2023-08-07T01:17:08;14.30;99.90
3644;DHT22;1838;50.742;7.158;2023-08-07T01:19:35;14.30;99.90
3644;DHT22;1838;50.742;7.158;2023-08-07T01:22:08;14.30;99.90
3644;DHT22;1838;50.742;7.158;2023-08-07T01:24:37;14.30;99.90
3644;DHT22;1838;50.742;7.158;2023-08-07T01:32:35;14.30;99.90
3644;DHT22;1838;50.742;7.158;2023-08-07T01:35:05;14.30;99.90
3644;DHT22;1838;50.742;7.158;2023-08-07T01:37:33;14.30;99.90
3644;DHT22;1838;50.742;7.158;2023-08-07T01:40:01;14.30;99.90
3644;DHT22;1838;50.742;7.158;2023-08-07T01:42:29;14.30;99.90
3644;DHT22;1838;50.742;7.158;2023-08-07T01:44:55;14.30;99.90
3644;DHT22;1838;50.742;7.158;2023-08-07T01:47:20;14.40;99.90
3644;DHT22;1838;50.742;7.158;2023-08-07T01:49:46;14.40;99.90
3644;DHT22;1838;50.742;7.158;2023-08-07T01:52:11;14.40;99.90
3644;DHT22;1838;50.742;7.158;2023-08-07T01:54:37;14.40;99.90
3644;DHT22;1838;50.742;7.158;2023-08-07T01:57:03;14.40;99.90
3644;DHT22;1838;50.742;7.158;2023-08-07T01:59:29;14.40;99.90
3644;DHT22;1838;50.742;7.158;2023-08-07T02:01:54;14.40;99.90
3644;DHT22;1838;50.742;7.158;2023-08-07T02:04:20;14.40;99.90
3644;DHT22;1838;50.742;7.158;2023-08-07T02:06:45;14.40;99.90
3644;DHT22;1838;50.742;7.158;2023-08-07T02:09:10;14.50;99.90
3644;DHT22;1838;50.742;7.158;2023-08-07T02:11:36;14.40;99.90
3644;DHT22;1838;50.742;7.158;2023-08-07T02:14:01;14.40;99.90
3644;DHT22;1838;50.742;7.158;2023-08-07T02:16:27;14.50;99.90
3644;DHT22;1838;50.742;7.158;2023-08-07T02:18:53;14.50;99.90
3644;DHT22;1838;50.742;7.158;2023-08-07T02:21:18;14.40;99.90
3644;DHT22;1838;50.742;7.158;2023-08-07T02:23:43;14.40;99.90
3644;DHT22;1838;50.742;7.158;2023-08-07T02:26:09;14.40;99.90
3644;DHT22;1838;50.742;7.158;2023-08-07T02:28:35;14.40;99.90
3644;DHT22;1838;50.742;7.158;2023-08-07T02:31:00;14.40;99.90
3644;DHT22;1838;50.742;7.158;2023-08-07T02:33:26;14.50;99.90
3644;DHT22;1838;50.742;7.158;2023-08-07T02:35:52;14.40;99.90
3644;DHT22;1838;50.742;7.158;2023-08-07T02:38:17;14.50;99.90
3644;DHT22;1838;50.742;7.158;2023-08-07T02:40:43;14.40;99.90
3644;DHT22;1838;50.742;7.158;2023-08-07T02:43:08;14.40;99.90
3644;DHT22;1838;50.742;7.158;2023-08-07T02:45:34;14.40;99.90
3644;DHT22;1838;50.742;7.158;2023-08-07T02:48:00;14.40;99.90
3644;DHT22;1838;50.742;7.158;2023-08-07T02:50:26;14.40;99.90
3644;DHT22;1838;50.742;7.158;2023-08-07T02:52:53;14.40;99.90
3644;DHT22;1838;50.742;7.158;2023-08-07T02:55:18;14.40;99.90
3644;DHT22;1838;50.742;7.158;2023-08-07T02:57:44;14.40;99.90
3644;DHT22;1838;50.742;7.158;2023-08-07T03:00:10;14.40;99.90
3644;DHT22;1838;50.742;7.158;2023-08-07T03:02:36;14.40;99.90
3644;DHT22;1838;50.742;7.158;2023-08-07T03:05:02;14.40;99.90
3644;DHT22;1838;50.742;7.158;2023-08-07T03:07:28;14.40;99.90
3644;DHT22;1838;50.742;7.158;2023-08-07T03:09:53;14.40;99.90
3644;DHT22;1838;50.742;7.158;2023-08-07T03:12:19;14.40;99.90
3644;DHT22;1838;50.742;7.158;2023-08-07T03:14:44;14.40;99.90
3644;DHT22;1838;50.742;7.158;2023-08-07T03:17:10;14.30;99.90
3644;DHT22;1838;50.742;7.158;2023-08-07T03:19:35;14.30;99.90
3644;DHT22;1838;50.742;7.158;2023-08-07T03:22:01;14.30;99.90
3644;DHT22;1838;50.742;7.158;2023-08-07T03:24:26;14.30;99.90
3644;DHT22;1838;50.742;7.158;2023-08-07T03:26:52;14.30;99.90
3644;DHT22;1838;50.742;7.158;2023-08-07T03:29:17;14.40;99.90
3644;DHT22;1838;50.742;7.158;2023-08-07T03:31:43;14.30;99.90
3644;DHT22;1838;50.742;7.158;2023-08-07T03:34:09;14.30;99.90
3644;DHT22;1838;50.742;7.158;2023-08-07T03:36:35;14.30;99.90
3644;DHT22;1838;50.742;7.158;2023-08-07T03:39:01;14.30;99.90
3644;DHT22;1838;50.742;7.158;2023-08-07T03:41:26;14.30;99.90
3644;DHT22;1838;50.742;7.158;2023-08-07T03:43:53;14.20;99.90
3644;DHT22;1838;50.742;7.158;2023-08-07T03:46:18;14.20;99.90
3644;DHT22;1838;50.742;7.158;2023-08-07T03:48:44;14.20;99.90
3644;DHT22;1838;50.742;7.158;2023-08-07T03:51:09;14.20;99.90
3644;DHT22;1838;50.742;7.158;2023-08-07T03:53:36;14.20;99.90
3644;DHT22;1838;50.742;7.158;2023-08-07T03:56:02;14.20;99.90
3644;DHT22;1838;50.742;7.158;2023-08-07T03:58:27;14.10;99.90
3644;DHT22;1838;50.742;7.158;2023-08-07T04:00:53;14.20;99.90
3644;DHT22;1838;50.742;7.158;2023-08-07T04:03:20;14.20;99.90
3644;DHT22;1838;50.742;7.158;2023-08-07T04:05:45;14.10;99.90
3644;DHT22;1838;50.742;7.158;2023-08-07T04:08:11;14.10;99.90
3644;DHT22;1838;50.742;7.158;2023-08-07T04:10:36;14.10;99.90
3644;DHT22;1838;50.742;7.158;2023-08-07T04:13:02;14.10;99.90
3644;DHT22;1838;50.742;7.158;2023-08-07T04:15:28;14.00;99.90
3644;DHT22;1838;50.742;7.158;2023-08-07T04:17:53;14.00;99.90
3644;DHT22;1838;50.742;7.158;2023-08-07T04:20:19;14.00;99.90
3644;DHT22;1838;50.742;7.158;2023-08-07T04:22:45;14.00;99.90
3644;DHT22;1838;50.742;7.158;2023-08-07T04:25:12;13.90;99.90
3644;DHT22;1838;50.742;7.158;2023-08-07T04:27:37;13.90;99.90
3644;DHT22;1838;50.742;7.158;2023-08-07T04:30:05;13.90;99.90
3644;DHT22;1838;50.742;7.158;2023-08-07T04:32:30;13.90;99.90
3644;DHT22;1838;50.742;7.158;2023-08-07T04:34:56;13.90;99.90
3644;DHT22;1838;50.742;7.158;2023-08-07T04:37:21;13.90;99.90
3644;DHT22;1838;50.742;7.158;2023-08-07T04:39:47;13.90;99.90
3644;DHT22;1838;50.742;7.158;2023-08-07T04:42:13;13.90;99.90
3644;DHT22;1838;50.742;7.158;2023-08-07T04:44:38;13.90;99.90
3644;DHT22;1838;50.742;7.158;2023-08-07T04:47:04;13.90;99.90
3644;DHT22;1838;50.742;7.158;2023-08-07T04:49:30;13.90;99.90
3644;DHT22;1838;50.742;7.158;2023-08-07T04:51:56;13.90;99.90
3644;DHT22;1838;50.742;7.158;2023-08-07T04:54:21;14.00;99.90
3644;DHT22;1838;50.742;7.158;2023-08-07T04:56:47;13.90;99.90
3644;DHT22;1838;50.742;7.158;2023-08-07T04:59:12;13.90;99.90
3644;DHT22;1838;50.742;7.158;2023-08-07T05:01:38;13.90;99.90
3644;DHT22;1838;50.742;7.158;2023-08-07T05:04:04;13.90;99.90
3644;DHT22;1838;50.742;7.158;2023-08-07T05:06:30;13.90;99.90
3644;DHT22;1838;50.742;7.158;2023-08-07T05:08:56;13.90;99.90
3644;DHT22;1838;50.742;7.158;2023-08-07T05:11:22;13.90;99.90
3644;DHT22;1838;50.742;7.158;2023-08-07T05:13:47;14.00;99.90
3644;DHT22;1838;50.742;7.158;2023-08-07T05:16:13;13.90;99.90
3644;DHT22;1838;50.742;7.158;2023-08-07T05:18:38;14.00;99.90
3644;DHT22;1838;50.742;7.158;2023-08-07T05:21:04;14.00;99.90
3644;DHT22;1838;50.742;7.158;2023-08-07T05:23:29;14.00;99.90
3644;DHT22;1838;50.742;7.158;2023-08-07T05:25:55;14.10;99.90
3644;DHT22;1838;50.742;7.158;2023-08-07T05:28:21;14.10;99.90
3644;DHT22;1838;50.742;7.158;2023-08-07T05:30:46;14.00;99.90
3644;DHT22;1838;50.742;7.158;2023-08-07T05:33:12;14.10;99.90
3644;DHT22;1838;50.742;7.158;2023-08-07T05:35:40;14.10;99.90
3644;DHT22;1838;50.742;7.158;2023-08-07T05:38:05;14.10;99.90
3644;DHT22;1838;50.742;7.158;2023-08-07T05:40:31;14.20;99.90
3644;DHT22;1838;50.742;7.158;2023-08-07T05:42:56;14.20;99.90
3644;DHT22;1838;50.742;7.158;2023-08-07T05:45:22;14.20;99.90
3644;DHT22;1838;50.742;7.158;2023-08-07T05:47:47;14.20;99.90
3644;DHT22;1838;50.742;7.158;2023-08-07T05:50:13;14.30;99.90
3644;DHT22;1838;50.742;7.158;2023-08-07T05:52:38;14.30;99.90
3644;DHT22;1838;50.742;7.158;2023-08-07T05:55:04;14.40;99.90
3644;DHT22;1838;50.742;7.158;2023-08-07T05:57:30;14.40;99.90
3644;DHT22;1838;50.742;7.158;2023-08-07T05:59:55;14.40;99.90
3644;DHT22;1838;50.742;7.158;2023-08-07T06:02:21;14.40;99.90
3644;DHT22;1838;50.742;7.158;2023-08-07T06:04:46;14.50;99.90
3644;DHT22;1838;50.742;7.158;2023-08-07T06:07:12;14.50;99.90
3644;DHT22;1838;50.742;7.158;2023-08-07T06:09:38;14.50;99.90
3644;DHT22;1838;50.742;7.158;2023-08-07T06:12:03;14.50;99.90
3644;DHT22;1838;50.742;7.158;2023-08-07T06:14:29;14.50;99.90
3644;DHT22;1838;50.742;7.158;2023-08-07T06:16:55;14.50;99.90
3644;DHT22;1838;50.742;7.158;2023-08-07T06:19:23;14.60;99.90
3644;DHT22;1838;50.742;7.158;2023-08-07T06:21:49;14.60;99.90
3644;DHT22;1838;50.742;7.158;2023-08-07T06:24:14;14.60;99.90
3644;DHT22;1838;50.742;7.158;2023-08-07T06:26:40;14.60;99.90
3644;DHT22;1838;50.742;7.158;2023-08-07T06:29:05;14.60;99.90
3644;DHT22;1838;50.742;7.158;2023-08-07T06:31:31;14.60;99.90
3644;DHT22;1838;50.742;7.158;2023-08-07T06:33:56;14.70;99.90
3644;DHT22;1838;50.742;7.158;2023-08-07T06:36:22;14.60;99.90
3644;DHT22;1838;50.742;7.158;2023-08-07T06:38:47;14.60;99.90
3644;DHT22;1838;50.742;7.158;2023-08-07T06:41:13;14.50;99.90
3644;DHT22;1838;50.742;7.158;2023-08-07T06:43:38;14.50;99.90
3644;DHT22;1838;50.742;7.158;2023-08-07T06:46:04;14.50;99.90
3644;DHT22;1838;50.742;7.158;2023-08-07T06:48:29;14.50;99.90
3644;DHT22;1838;50.742;7.158;2023-08-07T06:50:55;14.40;99.90
3644;DHT22;1838;50.742;7.158;2023-08-07T06:53:20;14.50;99.90
3644;DHT22;1838;50.742;7.158;2023-08-07T06:55:46;14.40;99.90
3644;DHT22;1838;50.742;7.158;2023-08-07T06:58:12;14.40;99.90
3644;DHT22;1838;50.742;7.158;2023-08-07T07:00:37;14.40;99.90
3644;DHT22;1838;50.742;7.158;2023-08-07T07:03:03;14.30;99.90
3644;DHT22;1838;50.742;7.158;2023-08-07T07:05:29;14.30;99.90
3644;DHT22;1838;50.742;7.158;2023-08-07T07:07:56;14.30;99.90
3644;DHT22;1838;50.742;7.158;2023-08-07T07:10:21;14.30;99.90
3644;DHT22;1838;50.742;7.158;2023-08-07T07:12:47;14.20;99.90
3644;DHT22;1838;50.742;7.158;2023-08-07T07:15:13;14.20;99.90
3644;DHT22;1838;50.742;7.158;2023-08-07T07:17:39;14.20;99.90
3644;DHT22;1838;50.742;7.158;2023-08-07T07:20:05;14.20;99.90
3644;DHT22;1838;50.742;7.158;2023-08-07T07:22:31;14.10;99.90
3644;DHT22;1838;50.742;7.158;2023-08-07T07:24:56;14.10;99.90
3644;DHT22;1838;50.742;7.158;2023-08-07T07:27:22;14.20;99.90
3644;DHT22;1838;50.742;7.158;2023-08-07T07:29:48;14.20;99.90
3644;DHT22;1838;50.742;7.158;2023-08-07T07:32:13;14.10;99.90
3644;DHT22;1838;50.742;7.158;2023-08-07T07:34:39;14.10;99.90
3644;DHT22;1838;50.742;7.158;2023-08-07T07:37:04;14.10;99.90
3644;DHT22;1838;50.742;7.158;2023-08-07T07:39:30;14.10;99.90
3644;DHT22;1838;50.742;7.158;2023-08-07T07:41:55;14.00;99.90
3644;DHT22;1838;50.742;7.158;2023-08-07T07:44:21;14.00;99.90
3644;DHT22;1838;50.742;7.158;2023-08-07T07:46:47;14.10;99.90
3644;DHT22;1838;50.742;7.158;2023-08-07T07:49:12;14.10;99.90
3644;DHT22;1838;50.742;7.158;2023-08-07T07:51:37;14.10;99.90
3644;DHT22;1838;50.742;7.158;2023-08-07T07:54:03;14.10;99.90
3644;DHT22;1838;50.742;7.158;2023-08-07T07:56:29;14.10;99.90
3644;DHT22;1838;50.742;7.158;2023-08-07T07:58:55;14.20;99.90
3644;DHT22;1838;50.742;7.158;2023-08-07T08:01:20;14.20;99.90
3644;DHT22;1838;50.742;7.158;2023-08-07T08:03:46;14.20;99.90
3644;DHT22;1838;50.742;7.158;2023-08-07T08:06:12;14.20;99.90
3644;DHT22;1838;50.742;7.158;2023-08-07T08:08:37;14.30;99.90
3644;DHT22;1838;50.742;7.158;2023-08-07T08:11:03;14.30;99.90
3644;DHT22;1838;50.742;7.158;2023-08-07T08:13:28;14.40;99.90
3644;DHT22;1838;50.742;7.158;2023-08-07T08:15:54;14.40;99.90
3644;DHT22;1838;50.742;7.158;2023-08-07T08:18:19;14.50;99.90
3644;DHT22;1838;50.742;7.158;2023-08-07T08:20:45;14.50;99.90
3644;DHT22;1838;50.742;7.158;2023-08-07T08:23:10;14.60;99.90
3644;DHT22;1838;50.742;7.158;2023-08-07T08:25:36;14.60;99.90
3644;DHT22;1838;50.742;7.158;2023-08-07T08:28:01;14.60;99.90
3644;DHT22;1838;50.742;7.158;2023-08-07T08:30:28;14.60;99.90
3644;DHT22;1838;50.742;7.158;2023-08-07T08:32:53;14.70;99.90
3644;DHT22;1838;50.742;7.158;2023-08-07T08:35:19;14.70;99.90
3644;DHT22;1838;50.742;7.158;2023-08-07T08:37:45;14.70;99.90
3644;DHT22;1838;50.742;7.158;2023-08-07T08:40:10;14.70;99.90
3644;DHT22;1838;50.742;7.158;2023-08-07T08:42:43;14.80;99.90
3644;DHT22;1838;50.742;7.158;2023-08-07T08:45:12;14.80;99.90
3644;DHT22;1838;50.742;7.158;2023-08-07T08:47:39;14.90;99.90
3644;DHT22;1838;50.742;7.158;2023-08-07T08:50:09;15.00;99.90
3644;DHT22;1838;50.742;7.158;2023-08-07T08:52:37;15.00;99.90
3644;DHT22;1838;50.742;7.158;2023-08-07T08:55:03;15.10;99.90
3644;DHT22;1838;50.742;7.158;2023-08-07T08:57:30;15.10;99.90
3644;DHT22;1838;50.742;7.158;2023-08-07T08:59:58;15.20;99.90
3644;DHT22;1838;50.742;7.158;2023-08-07T09:02:25;15.30;99.90
3644;DHT22;1838;50.742;7.158;2023-08-07T09:04:50;15.30;99.90
3644;DHT22;1838;50.742;7.158;2023-08-07T09:07:16;15.40;99.90
3644;DHT22;1838;50.742;7.158;2023-08-07T09:09:44;15.50;99.90
3644;DHT22;1838;50.742;7.158;2023-08-07T09:12:16;15.40;99.90
3644;DHT22;1838;50.742;7.158;2023-08-07T09:14:45;15.40;99.90
3644;DHT22;1838;50.742;7.158;2023-08-07T09:17:15;15.40;99.90
3644;DHT22;1838;50.742;7.158;2023-08-07T09:19:41;15.50;99.90
3644;DHT22;1838;50.742;7.158;2023-08-07T09:22:07;15.60;99.90
3644;DHT22;1838;50.742;7.158;2023-08-07T09:24:34;15.70;99.90
3644;DHT22;1838;50.742;7.158;2023-08-07T09:26:59;15.70;99.90
3644;DHT22;1838;50.742;7.158;2023-08-07T09:29:26;15.80;99.90
3644;DHT22;1838;50.742;7.158;2023-08-07T09:31:54;15.90;99.90
3644;DHT22;1838;50.742;7.158;2023-08-07T09:34:20;16.00;99.90
3644;DHT22;1838;50.742;7.158;2023-08-07T09:36:45;16.10;99.90
3644;DHT22;1838;50.742;7.158;2023-08-07T09:39:11;16.20;99.90
3644;DHT22;1838;50.742;7.158;2023-08-07T09:41:37;16.20;99.90
3644;DHT22;1838;50.742;7.158;2023-08-07T09:44:09;16.30;99.90
3644;DHT22;1838;50.742;7.158;2023-08-07T09:46:45;16.40;99.90
3644;DHT22;1838;50.742;7.158;2023-08-07T09:49:11;16.40;99.90
3644;DHT22;1838;50.742;7.158;2023-08-07T09:51:47;16.40;99.90
3644;DHT22;1838;50.742;7.158;2023-08-07T09:54:15;16.40;99.90
3644;DHT22;1838;50.742;7.158;2023-08-07T09:56:41;16.40;99.90
3644;DHT22;1838;50.742;7.158;2023-08-07T09:59:08;16.40;99.90
3644;DHT22;1838;50.742;7.158;2023-08-07T10:01:36;16.40;99.90
3644;DHT22;1838;50.742;7.158;2023-08-07T10:04:04;16.40;99.90
3644;DHT22;1838;50.742;7.158;2023-08-07T10:06:29;16.50;99.90
3644;DHT22;1838;50.742;7.158;2023-08-07T10:08:56;16.60;99.90
3644;DHT22;1838;50.742;7.158;2023-08-07T10:11:23;16.60;99.90
3644;DHT22;1838;50.742;7.158;2023-08-07T10:13:49;16.70;99.90
3644;DHT22;1838;50.742;7.158;2023-08-07T10:16:15;16.80;99.90
3644;DHT22;1838;50.742;7.158;2023-08-07T10:18:41;16.90;99.90
3644;DHT22;1838;50.742;7.158;2023-08-07T10:21:06;16.90;99.90
3644;DHT22;1838;50.742;7.158;2023-08-07T10:23:35;17.00;99.90
3644;DHT22;1838;50.742;7.158;2023-08-07T10:26:04;17.10;99.90
3644;DHT22;1838;50.742;7.158;2023-08-07T10:28:32;17.10;99.90
3644;DHT22;1838;50.742;7.158;2023-08-07T10:30:59;17.10;99.90
3644;DHT22;1838;50.742;7.158;2023-08-07T10:33:25;17.20;99.90
3644;DHT22;1838;50.742;7.158;2023-08-07T10:35:52;17.20;99.90
3644;DHT22;1838;50.742;7.158;2023-08-07T10:38:19;17.30;99.90
3644;DHT22;1838;50.742;7.158;2023-08-07T10:43:31;17.60;99.90
3644;DHT22;1838;50.742;7.158;2023-08-07T10:46:05;17.80;99.90
3644;DHT22;1838;50.742;7.158;2023-08-07T10:48:38;18.00;99.90
3644;DHT22;1838;50.742;7.158;2023-08-07T10:51:04;18.30;99.90
3644;DHT22;1838;50.742;7.158;2023-08-07T10:53:31;18.50;99.90
3644;DHT22;1838;50.742;7.158;2023-08-07T10:56:01;18.70;99.90
3644;DHT22;1838;50.742;7.158;2023-08-07T10:58:30;18.80;99.90
3644;DHT22;1838;50.742;7.158;2023-08-07T11:04:02;19.20;99.90
3644;DHT22;1838;50.742;7.158;2023-08-07T11:06:31;19.50;99.90
3644;DHT22;1838;50.742;7.158;2023-08-07T11:08:58;19.70;99.90
3644;DHT22;1838;50.742;7.158;2023-08-07T11:11:24;19.90;99.90
3644;DHT22;1838;50.742;7.158;2023-08-07T11:13:49;20.10;99.90
3644;DHT22;1838;50.742;7.158;2023-08-07T11:16:15;20.30;99.90
3644;DHT22;1838;50.742;7.158;2023-08-07T11:18:42;20.40;99.90
3644;DHT22;1838;50.742;7.158;2023-08-07T11:21:10;20.60;99.90
3644;DHT22;1838;50.742;7.158;2023-08-07T11:23:39;20.80;99.90
3644;DHT22;1838;50.742;7.158;2023-08-07T11:26:05;20.90;99.90
3644;DHT22;1838;50.742;7.158;2023-08-07T11:28:31;21.00;99.90
3644;DHT22;1838;50.742;7.158;2023-08-07T11:30:57;21.00;99.90
3644;DHT22;1838;50.742;7.158;2023-08-07T11:33:27;21.00;99.90
3644;DHT22;1838;50.742;7.158;2023-08-07T11:35:53;21.20;99.90
3644;DHT22;1838;50.742;7.158;2023-08-07T11:38:32;21.40;99.90
3644;DHT22;1838;50.742;7.158;2023-08-07T11:41:02;21.60;99.90
3644;DHT22;1838;50.742;7.158;2023-08-07T11:43:29;21.80;99.90
3644;DHT22;1838;50.742;7.158;2023-08-07T11:46:00;22.00;99.90
3644;DHT22;1838;50.742;7.158;2023-08-07T11:48:27;22.30;99.90
3644;DHT22;1838;50.742;7.158;2023-08-07T11:50:54;22.40;99.90
3644;DHT22;1838;50.742;7.158;2023-08-07T11:53:21;22.50;99.90
3644;DHT22;1838;50.742;7.158;2023-08-07T11:58:27;22.20;99.90
3644;DHT22;1838;50.742;7.158;2023-08-07T12:00:54;22.00;99.90
3644;DHT22;1838;50.742;7.158;2023-08-07T12:03:30;21.80;99.90
3644;DHT22;1838;50.742;7.158;2023-08-07T12:05:57;21.70;99.90
3644;DHT22;1838;50.742;7.158;2023-08-07T12:08:23;21.70;99.90
3644;DHT22;1838;50.742;7.158;2023-08-07T12:10:50;21.70;99.90
3644;DHT22;1838;50.742;7.158;2023-08-07T12:13:19;21.70;99.90
3644;DHT22;1838;50.742;7.158;2023-08-07T12:15:45;21.80;99.90
3644;DHT22;1838;50.742;7.158;2023-08-07T12:18:10;21.90;99.90
3644;DHT22;1838;50.742;7.158;2023-08-07T12:20:37;22.00;99.90
3644;DHT22;1838;50.742;7.158;2023-08-07T12:23:03;22.30;99.90
3644;DHT22;1838;50.742;7.158;2023-08-07T12:25:28;22.50;99.90
3644;DHT22;1838;50.742;7.158;2023-08-07T12:27:54;22.70;99.90
3644;DHT22;1838;50.742;7.158;2023-08-07T12:30:19;22.80;99.90
3644;DHT22;1838;50.742;7.158;2023-08-07T12:32:45;22.90;98.90
3644;DHT22;1838;50.742;7.158;2023-08-07T12:35:11;23.10;99.70
3644;DHT22;1838;50.742;7.158;2023-08-07T12:37:36;23.20;98.50
3644;DHT22;1838;50.742;7.158;2023-08-07T12:40:02;23.30;96.40
3644;DHT22;1838;50.742;7.158;2023-08-07T12:42:28;23.30;94.70
3644;DHT22;1838;50.742;7.158;2023-08-07T12:44:55;23.40;96.60
3644;DHT22;1838;50.742;7.158;2023-08-07T12:47:20;23.40;95.20
3644;DHT22;1838;50.742;7.158;2023-08-07T12:49:46;23.50;94.50
3644;DHT22;1838;50.742;7.158;2023-08-07T12:52:13;23.40;93.50
3644;DHT22;1838;50.742;7.158;2023-08-07T12:54:38;23.40;94.20
3644;DHT22;1838;50.742;7.158;2023-08-07T12:57:04;23.30;93.50
3644;DHT22;1838;50.742;7.158;2023-08-07T12:59:29;23.30;94.00
3644;DHT22;1838;50.742;7.158;2023-08-07T13:01:55;23.20;93.10
3644;DHT22;1838;50.742;7.158;2023-08-07T13:04:20;23.20;93.50
3644;DHT22;1838;50.742;7.158;2023-08-07T13:06:46;23.30;94.30
3644;DHT22;1838;50.742;7.158;2023-08-07T13:09:11;23.40;95.40
3644;DHT22;1838;50.742;7.158;2023-08-07T13:11:37;23.50;95.20
3644;DHT22;1838;50.742;7.158;2023-08-07T13:14:02;23.60;94.10
3644;DHT22;1838;50.742;7.158;2023-08-07T13:16:28;23.70;94.10
3644;DHT22;1838;50.742;7.158;2023-08-07T13:18:54;23.90;95.60
3644;DHT22;1838;50.742;7.158;2023-08-07T13:21:19;24.00;93.70
3644;DHT22;1838;50.742;7.158;2023-08-07T13:23:44;24.00;94.40
3644;DHT22;1838;50.742;7.158;2023-08-07T13:26:10;24.10;94.60
3644;DHT22;1838;50.742;7.158;2023-08-07T13:28:35;24.00;94.60
3644;DHT22;1838;50.742;7.158;2023-08-07T13:31:01;23.90;95.50
3644;DHT22;1838;50.742;7.158;2023-08-07T13:33:27;23.80;96.80
3644;DHT22;1838;50.742;7.158;2023-08-07T13:35:52;23.60;97.30
3644;DHT22;1838;50.742;7.158;2023-08-07T13:38:18;23.60;96.60
3644;DHT22;1838;50.742;7.158;2023-08-07T13:40:43;23.60;96.50
3644;DHT22;1838;50.742;7.158;2023-08-07T13:43:10;23.60;97.00
3644;DHT22;1838;50.742;7.158;2023-08-07T13:45:36;23.60;97.10
3644;DHT22;1838;50.742;7.158;2023-08-07T13:48:02;23.60;95.60
3644;DHT22;1838;50.742;7.158;2023-08-07T13:50:28;23.20;92.70
3644;DHT22;1838;50.742;7.158;2023-08-07T13:52:53;23.30;95.80
3644;DHT22;1838;50.742;7.158;2023-08-07T13:55:19;23.30;97.60
3644;DHT22;1838;50.742;7.158;2023-08-07T13:57:44;23.30;96.50
3644;DHT22;1838;50.742;7.158;2023-08-07T14:00:10;23.30;97.40
3644;DHT22;1838;50.742;7.158;2023-08-07T14:02:41;23.30;98.10
3644;DHT22;1838;50.742;7.158;2023-08-07T14:05:06;23.40;97.30
3644;DHT22;1838;50.742;7.158;2023-08-07T14:07:32;23.30;97.70
3644;DHT22;1838;50.742;7.158;2023-08-07T14:09:57;23.20;96.30
3644;DHT22;1838;50.742;7.158;2023-08-07T14:12:23;23.20;96.60
3644;DHT22;1838;50.742;7.158;2023-08-07T14:14:48;23.20;96.50
3644;DHT22;1838;50.742;7.158;2023-08-07T14:17:14;23.20;95.40
3644;DHT22;1838;50.742;7.158;2023-08-07T14:19:39;23.20;96.00
3644;DHT22;1838;50.742;7.158;2023-08-07T14:22:05;23.10;95.70
3644;DHT22;1838;50.742;7.158;2023-08-07T14:24:33;22.80;96.10
3644;DHT22;1838;50.742;7.158;2023-08-07T14:27:00;22.70;99.90
3644;DHT22;1838;50.742;7.158;2023-08-07T14:29:25;22.50;99.90
3644;DHT22;1838;50.742;7.158;2023-08-07T14:31:51;22.20;99.90
3644;DHT22;1838;50.742;7.158;2023-08-07T14:34:16;22.10;99.90
3644;DHT22;1838;50.742;7.158;2023-08-07T14:36:42;21.90;99.90
3644;DHT22;1838;50.742;7.158;2023-08-07T14:39:08;22.00;99.90
3644;DHT22;1838;50.742;7.158;2023-08-07T14:41:33;22.10;99.90
3644;DHT22;1838;50.742;7.158;2023-08-07T14:43:59;22.20;99.90
3644;DHT22;1838;50.742;7.158;2023-08-07T14:46:24;22.40;99.90
3644;DHT22;1838;50.742;7.158;2023-08-07T14:48:50;22.60;99.90
3644;DHT22;1838;50.742;7.158;2023-08-07T14:51:15;22.70;99.90
3644;DHT22;1838;50.742;7.158;2023-08-07T14:53:41;22.70;99.90
3644;DHT22;1838;50.742;7.158;2023-08-07T14:56:06;22.60;99.90
3644;DHT22;1838;50.742;7.158;2023-08-07T14:58:33;22.60;99.90
3644;DHT22;1838;50.742;7.158;2023-08-07T15:00:59;22.50;99.90
3644;DHT22;1838;50.742;7.158;2023-08-07T15:03:25;22.50;99.90
3644;DHT22;1838;50.742;7.158;2023-08-07T15:05:50;22.40;99.10
3644;DHT22;1838;50.742;7.158;2023-08-07T15:08:16;22.30;97.90
3644;DHT22;1838;50.742;7.158;2023-08-07T15:10:41;22.10;96.60
3644;DHT22;1838;50.742;7.158;2023-08-07T15:13:07;22.00;96.70
3644;DHT22;1838;50.742;7.158;2023-08-07T15:15:33;21.80;97.40
3644;DHT22;1838;50.742;7.158;2023-08-07T15:17:58;21.80;97.60
3644;DHT22;1838;50.742;7.158;2023-08-07T15:20:26;21.80;97.10
3644;DHT22;1838;50.742;7.158;2023-08-07T15:22:52;21.70;97.10
3644;DHT22;1838;50.742;7.158;2023-08-07T15:25:18;21.70;97.90
3644;DHT22;1838;50.742;7.158;2023-08-07T15:27:43;21.70;98.50
3644;DHT22;1838;50.742;7.158;2023-08-07T15:30:09;21.70;98.40
3644;DHT22;1838;50.742;7.158;2023-08-07T15:32:35;21.80;99.90
3644;DHT22;1838;50.742;7.158;2023-08-07T15:35:01;21.90;99.90
3644;DHT22;1838;50.742;7.158;2023-08-07T15:37:26;22.10;99.80
3644;DHT22;1838;50.742;7.158;2023-08-07T15:39:52;22.10;99.90
3644;DHT22;1838;50.742;7.158;2023-08-07T15:42:17;22.30;99.90
3644;DHT22;1838;50.742;7.158;2023-08-07T15:44:43;22.50;99.40
3644;DHT22;1838;50.742;7.158;2023-08-07T15:47:09;22.50;98.60
3644;DHT22;1838;50.742;7.158;2023-08-07T15:49:34;22.50;98.40
3644;DHT22;1838;50.742;7.158;2023-08-07T15:52:00;22.60;98.60
3644;DHT22;1838;50.742;7.158;2023-08-07T15:54:25;22.50;98.40
3644;DHT22;1838;50.742;7.158;2023-08-07T15:56:51;22.60;99.20
3644;DHT22;1838;50.742;7.158;2023-08-07T15:59:16;22.60;99.10
3644;DHT22;1838;50.742;7.158;2023-08-07T16:01:42;22.60;99.00
3644;DHT22;1838;50.742;7.158;2023-08-07T16:04:09;22.50;98.50
3644;DHT22;1838;50.742;7.158;2023-08-07T16:06:35;22.50;98.90
3644;DHT22;1838;50.742;7.158;2023-08-07T16:09:00;22.50;97.70